Buena Vista, CO (81211)

4:05 PM MDT on August 31, 2015 (GMT -0600)
NW of Buena Vista | | Change Station
CLOSE
Current Station
Personal Weather Station
Location: Buena Vista, CO
Elevation: 8200 ft
Nearby Weather Stations

Elev 8200 ft 38.86 °N, 106.17 °W | Updated 2 minutes ago

Overcast
Overcast
63.1 °F
Feels Like 63.1 °F
N
0.0
Wind Variable Wind from NNE
Gusts 17.0 mph

Today
High -- | Low -- °F
--% Chance of Precip.
Yesterday
High -- | Low -- °F
Precip. -- in
6:32 AM 7:36 PM
Waning Gibbous, 93% visible
Pressure 30.30 in
Visibility 7.0 miles
Clouds Scattered Clouds 2400 ft
Mostly Cloudy 7500 ft
Overcast 8500 ft
Dew Point 49 °F
Humidity 59%
Rainfall 0.00 in
Snow Depth Not available.
UV 2 out of 12
Pollen 10.00 out of 12
Air Quality Not available.
Flu Activity Not available.
METAR KAEJ 312155Z AUTO 32015G23KT 7SM VCTSRA SCT024 BKN075 OVC085 16/10 A3030 RMK AO2 LTG DSNT S THRU N T01570104
Pressure 30.30 in
Visibility 7.0 miles
Clouds Scattered Clouds 2400 ft
Mostly Cloudy 7500 ft
Overcast 8500 ft
Dew Point 49 °F
Humidity 59%
Rainfall 0.00 in
Snow Depth Not available.
UV 2 out of 12
Pollen 10.00 out of 12
Air Quality Not available.
Flu Activity Not available.
METAR KAEJ 312155Z AUTO 32015G23KT 7SM VCTSRA SCT024 BKN075 OVC085 16/10 A3030 RMK AO2 LTG DSNT S THRU N T01570104

10-Day Weather Forecast

×

Almanac

Astronomy

Aug. 31, 2015 Rise Set
Actual Time
Civil Twilight
Nautical Twilight
Astronomical Twilight
Moon
Length of Visible Light
Length of Day
Tomorrow will be .
, % of the Moon is Illuminated

Today's Extremes

State Highs State Lows

Community

WunderPhotos

Upload Photos

1,851,389 photos uploaded!

WunderBlogs® & News

Nearby

Air Quality

  Air Quality AQ Index Pollutant
Not available.

Snow Depth

Station Depth Elevation

Earthquake Activity

City Distance Mag. Time & Date
Minimum magnitude displayed is 2.5.

Coastal Water Temperatures

Place Temperature

Stations

Nearby Weather Stations

Station Location Temp. Windchill Dew Point Humidity Wind Precip. Elev Updated Type